Terminal Aerodrome Forecast
Issued by NWS

Home | Current Version | Previous Version | Text Only | Print | Product List | Glossary On
Versions: 1 2 3 4 5 6 7 8 9 10 11 12 13 14 15 16 17 18 19 20 21 22 23 24 25 26 27 28
000
FTUS43 KDVN 251802 AAA
TAFBRL
TAF AMD
KBRL 251802Z 2518/2618 14015G22KT P6SM BKN120
     FM260300 17010KT P6SM VCSH BKN060
     FM260700 18010KT 5SM -SHRA BKN030
     FM261300 24010KT 5SM BR VCSH OVC012=

USA.gov is the U.S. government's official web portal to all federal, state and local government web resources and services.